sensor_id;sensor_type;location;lat;lon;timestamp;pressure;altitude;pressure_sealevel;temperature;humidity
33781;BME280;20097;50.832;19.100;2023-02-18T00:01:34;97785.47;;;8.89;100.00
33781;BME280;20097;50.832;19.100;2023-02-18T00:06:39;97791.41;;;8.83;100.00
33781;BME280;20097;50.832;19.100;2023-02-18T00:11:45;97796.63;;;8.60;100.00
33781;BME280;20097;50.832;19.100;2023-02-18T00:16:49;97809.03;;;8.50;100.00
33781;BME280;20097;50.832;19.100;2023-02-18T00:21:53;97831.03;;;8.40;100.00
33781;BME280;20097;50.832;19.100;2023-02-18T00:26:59;97838.09;;;8.23;100.00
33781;BME280;20097;50.832;19.100;2023-02-18T00:32:04;97836.00;;;8.10;100.00
33781;BME280;20097;50.832;19.100;2023-02-18T00:37:08;97842.84;;;8.11;100.00
33781;BME280;20097;50.832;19.100;2023-02-18T00:42:14;97837.06;;;7.93;100.00
33781;BME280;20097;50.832;19.100;2023-02-18T00:47:19;97838.56;;;7.80;100.00
33781;BME280;20097;50.832;19.100;2023-02-18T00:52:23;97840.03;;;7.74;100.00
33781;BME280;20097;50.832;19.100;2023-02-18T00:57:29;97839.88;;;7.68;95.11
33781;BME280;20097;50.832;19.100;2023-02-18T01:02:34;97852.69;;;7.69;86.27
33781;BME280;20097;50.832;19.100;2023-02-18T01:07:39;97859.41;;;7.56;81.66
33781;BME280;20097;50.832;19.100;2023-02-18T01:12:45;97855.03;;;7.48;77.04
33781;BME280;20097;50.832;19.100;2023-02-18T01:17:50;97854.69;;;7.43;76.45
33781;BME280;20097;50.832;19.100;2023-02-18T01:22:55;97865.59;;;7.39;75.21
33781;BME280;20097;50.832;19.100;2023-02-18T01:28:01;97885.06;;;7.35;76.18
33781;BME280;20097;50.832;19.100;2023-02-18T01:33:07;97879.72;;;7.20;77.20
33781;BME280;20097;50.832;19.100;2023-02-18T01:38:13;97874.38;;;7.06;78.71
33781;BME280;20097;50.832;19.100;2023-02-18T01:43:21;97886.34;;;6.90;81.48
33781;BME280;20097;50.832;19.100;2023-02-18T01:48:30;97883.44;;;6.85;83.61
33781;BME280;20097;50.832;19.100;2023-02-18T01:53:43;97884.69;;;6.81;86.21
33781;BME280;20097;50.832;19.100;2023-02-18T01:58:52;97899.13;;;6.76;89.65
33781;BME280;20097;50.832;19.100;2023-02-18T02:03:58;97906.25;;;6.74;92.10
33781;BME280;20097;50.832;19.100;2023-02-18T02:09:06;97898.47;;;6.74;90.87
33781;BME280;20097;50.832;19.100;2023-02-18T02:14:30;97900.75;;;6.77;87.18
33781;BME280;20097;50.832;19.100;2023-02-18T02:26:11;97900.22;;;6.65;88.23
33781;BME280;20097;50.832;19.100;2023-02-18T02:37:27;97900.53;;;6.54;90.02
33781;BME280;20097;50.832;19.100;2023-02-18T02:42:45;97915.25;;;6.46;92.36
33781;BME280;20097;50.832;19.100;2023-02-18T02:47:58;97939.38;;;6.38;92.75
33781;BME280;20097;50.832;19.100;2023-02-18T02:53:25;97935.44;;;6.34;88.11
33781;BME280;20097;50.832;19.100;2023-02-18T02:58:30;97960.91;;;6.31;85.38
33781;BME280;20097;50.832;19.100;2023-02-18T03:04:03;97942.53;;;6.16;85.06
33781;BME280;20097;50.832;19.100;2023-02-18T03:09:20;97955.88;;;6.04;87.28
33781;BME280;20097;50.832;19.100;2023-02-18T03:14:30;97948.88;;;5.96;89.68
33781;BME280;20097;50.832;19.100;2023-02-18T03:19:41;97938.66;;;5.95;88.85
33781;BME280;20097;50.832;19.100;2023-02-18T03:24:50;97963.59;;;5.96;88.34
33781;BME280;20097;50.832;19.100;2023-02-18T03:30:03;97961.00;;;5.96;88.22
33781;BME280;20097;50.832;19.100;2023-02-18T03:35:12;97959.53;;;5.93;89.13
33781;BME280;20097;50.832;19.100;2023-02-18T03:40:18;97969.19;;;5.83;88.41
33781;BME280;20097;50.832;19.100;2023-02-18T03:45:23;97977.81;;;5.74;89.32
33781;BME280;20097;50.832;19.100;2023-02-18T03:50:27;97982.06;;;5.75;87.41
33781;BME280;20097;50.832;19.100;2023-02-18T03:55:33;97980.72;;;5.71;85.55
33781;BME280;20097;50.832;19.100;2023-02-18T04:00:38;97981.84;;;5.69;84.13
33781;BME280;20097;50.832;19.100;2023-02-18T04:05:42;97995.31;;;5.72;82.63
33781;BME280;20097;50.832;19.100;2023-02-18T04:10:48;97986.81;;;5.62;82.18
33781;BME280;20097;50.832;19.100;2023-02-18T04:15:53;97994.88;;;5.59;82.42
33781;BME280;20097;50.832;19.100;2023-02-18T04:20:58;98000.06;;;5.59;81.43
33781;BME280;20097;50.832;19.100;2023-02-18T04:26:03;98000.06;;;5.59;81.95
33781;BME280;20097;50.832;19.100;2023-02-18T04:31:09;97997.09;;;5.54;86.06
33781;BME280;20097;50.832;19.100;2023-02-18T04:36:13;98003.16;;;5.45;89.55
33781;BME280;20097;50.832;19.100;2023-02-18T04:41:19;98002.22;;;5.46;89.85
33781;BME280;20097;50.832;19.100;2023-02-18T04:46:23;98004.28;;;5.42;89.48
33781;BME280;20097;50.832;19.100;2023-02-18T04:51:28;98013.28;;;5.38;91.51
33781;BME280;20097;50.832;19.100;2023-02-18T04:56:34;98002.34;;;5.27;93.14
33781;BME280;20097;50.832;19.100;2023-02-18T05:01:38;98009.88;;;5.20;92.01
33781;BME280;20097;50.832;19.100;2023-02-18T05:06:43;98016.69;;;5.21;86.86
33781;BME280;20097;50.832;19.100;2023-02-18T05:11:49;98023.34;;;5.24;84.77
33781;BME280;20097;50.832;19.100;2023-02-18T05:16:53;98028.44;;;5.16;84.20
33781;BME280;20097;50.832;19.100;2023-02-18T05:21:58;98033.53;;;5.08;83.94
33781;BME280;20097;50.832;19.100;2023-02-18T05:27:03;98045.69;;;4.98;84.65
33781;BME280;20097;50.832;19.100;2023-02-18T05:32:07;98038.50;;;4.92;84.30
33781;BME280;20097;50.832;19.100;2023-02-18T05:37:12;98048.31;;;4.88;84.42
33781;BME280;20097;50.832;19.100;2023-02-18T05:42:18;98052.31;;;4.83;81.63
33781;BME280;20097;50.832;19.100;2023-02-18T05:47:22;98063.69;;;4.90;80.71
33781;BME280;20097;50.832;19.100;2023-02-18T05:52:27;98068.47;;;4.94;79.95
33781;BME280;20097;50.832;19.100;2023-02-18T05:57:33;98062.38;;;4.86;80.02
33781;BME280;20097;50.832;19.100;2023-02-18T06:02:37;98065.06;;;4.94;78.58
33781;BME280;20097;50.832;19.100;2023-02-18T06:07:42;98071.28;;;5.01;77.52
33781;BME280;20097;50.832;19.100;2023-02-18T06:12:48;98073.97;;;5.09;76.59
33781;BME280;20097;50.832;19.100;2023-02-18T06:17:52;98087.94;;;5.16;76.35
33781;BME280;20097;50.832;19.100;2023-02-18T06:22:56;98080.31;;;5.14;75.99
33781;BME280;20097;50.832;19.100;2023-02-18T06:28:02;98089.13;;;5.21;75.50
33781;BME280;20097;50.832;19.100;2023-02-18T06:33:07;98082.28;;;5.30;74.88
33781;BME280;20097;50.832;19.100;2023-02-18T06:38:11;98085.88;;;5.37;73.99
33781;BME280;20097;50.832;19.100;2023-02-18T06:43:17;98089.25;;;5.47;74.29
33781;BME280;20097;50.832;19.100;2023-02-18T06:48:22;98079.94;;;5.54;74.75
33781;BME280;20097;50.832;19.100;2023-02-18T06:53:27;98087.78;;;5.62;73.91
33781;BME280;20097;50.832;19.100;2023-02-18T06:58:33;98096.44;;;5.71;73.17
33781;BME280;20097;50.832;19.100;2023-02-18T07:03:37;98094.34;;;5.74;72.61
33781;BME280;20097;50.832;19.100;2023-02-18T07:08:42;98088.31;;;5.83;72.54
33781;BME280;20097;50.832;19.100;2023-02-18T07:13:48;98086.56;;;5.84;72.25
33781;BME280;20097;50.832;19.100;2023-02-18T07:18:52;98094.97;;;5.86;71.28
33781;BME280;20097;50.832;19.100;2023-02-18T07:23:57;98097.63;;;5.94;72.00
33781;BME280;20097;50.832;19.100;2023-02-18T07:29:03;98079.84;;;5.99;71.56
33781;BME280;20097;50.832;19.100;2023-02-18T07:34:08;98092.06;;;6.06;71.17
33781;BME280;20097;50.832;19.100;2023-02-18T07:39:12;98094.88;;;6.13;69.91
33781;BME280;20097;50.832;19.100;2023-02-18T07:44:18;98086.50;;;6.19;69.29
33781;BME280;20097;50.832;19.100;2023-02-18T07:49:22;98087.88;;;6.31;68.95
33781;BME280;20097;50.832;19.100;2023-02-18T07:54:27;98087.44;;;6.35;68.42
33781;BME280;20097;50.832;19.100;2023-02-18T07:59:32;98084.88;;;6.43;67.79
33781;BME280;20097;50.832;19.100;2023-02-18T08:04:37;98098.72;;;6.52;66.99
33781;BME280;20097;50.832;19.100;2023-02-18T08:09:41;98108.78;;;6.55;66.17
33781;BME280;20097;50.832;19.100;2023-02-18T08:14:48;98103.38;;;6.74;65.98
33781;BME280;20097;50.832;19.100;2023-02-18T08:19:53;98102.31;;;6.84;65.97
33781;BME280;20097;50.832;19.100;2023-02-18T08:24:57;98092.56;;;6.86;65.20
33781;BME280;20097;50.832;19.100;2023-02-18T08:30:04;98106.56;;;6.93;64.96
33781;BME280;20097;50.832;19.100;2023-02-18T08:35:10;98103.78;;;6.95;64.14
33781;BME280;20097;50.832;19.100;2023-02-18T08:40:15;98095.72;;;7.06;63.96
33781;BME280;20097;50.832;19.100;2023-02-18T08:45:22;98110.22;;;7.17;63.83
33781;BME280;20097;50.832;19.100;2023-02-18T08:50:27;98098.19;;;7.16;62.54
33781;BME280;20097;50.832;19.100;2023-02-18T08:55:33;98100.50;;;7.19;61.78
33781;BME280;20097;50.832;19.100;2023-02-18T09:00:40;98111.50;;;7.21;61.36
33781;BME280;20097;50.832;19.100;2023-02-18T09:05:45;98097.28;;;7.25;60.71
33781;BME280;20097;50.832;19.100;2023-02-18T09:10:53;98095.47;;;7.17;60.03
33781;BME280;20097;50.832;19.100;2023-02-18T09:16:04;98090.31;;;7.25;61.57
33781;BME280;20097;50.832;19.100;2023-02-18T09:21:11;98094.00;;;7.23;60.93
33781;BME280;20097;50.832;19.100;2023-02-18T09:26:18;98099.19;;;7.23;60.89
33781;BME280;20097;50.832;19.100;2023-02-18T09:31:27;98103.13;;;7.27;59.85
33781;BME280;20097;50.832;19.100;2023-02-18T09:36:32;98089.81;;;7.30;59.70
33781;BME280;20097;50.832;19.100;2023-02-18T09:41:40;98085.94;;;7.42;60.21
33781;BME280;20097;50.832;19.100;2023-02-18T09:46:53;98088.88;;;7.39;59.63
33781;BME280;20097;50.832;19.100;2023-02-18T09:52:05;98091.97;;;7.42;59.21
33781;BME280;20097;50.832;19.100;2023-02-18T09:57:22;98085.00;;;7.51;59.22
33781;BME280;20097;50.832;19.100;2023-02-18T10:02:28;98083.72;;;7.63;58.94
33781;BME280;20097;50.832;19.100;2023-02-18T10:07:34;98084.06;;;7.76;58.39
33781;BME280;20097;50.832;19.100;2023-02-18T10:12:40;98088.31;;;7.85;58.00
33781;BME280;20097;50.832;19.100;2023-02-18T10:17:47;98070.78;;;7.95;58.17
33781;BME280;20097;50.832;19.100;2023-02-18T10:22:53;98060.03;;;8.06;57.56
33781;BME280;20097;50.832;19.100;2023-02-18T10:28:00;98034.72;;;8.08;58.06
33781;BME280;20097;50.832;19.100;2023-02-18T10:33:26;98045.91;;;8.00;58.01
33781;BME280;20097;50.832;19.100;2023-02-18T10:38:40;98016.19;;;8.11;58.11
33781;BME280;20097;50.832;19.100;2023-02-18T10:43:55;98023.00;;;8.28;58.71
33781;BME280;20097;50.832;19.100;2023-02-18T10:49:24;98022.66;;;8.39;59.39
33781;BME280;20097;50.832;19.100;2023-02-18T10:54:50;98028.16;;;8.36;59.24
33781;BME280;20097;50.832;19.100;2023-02-18T10:59:59;98021.66;;;8.48;60.31
33781;BME280;20097;50.832;19.100;2023-02-18T11:05:19;98008.53;;;8.17;62.28
33781;BME280;20097;50.832;19.100;2023-02-18T11:10:30;98005.78;;;8.11;64.85
33781;BME280;20097;50.832;19.100;2023-02-18T11:15:36;98011.63;;;7.97;66.95
33781;BME280;20097;50.832;19.100;2023-02-18T11:20:55;98024.63;;;7.81;74.18
33781;BME280;20097;50.832;19.100;2023-02-18T11:26:03;98037.38;;;7.18;91.22
33781;BME280;20097;50.832;19.100;2023-02-18T11:31:09;98036.03;;;6.98;100.00
33781;BME280;20097;50.832;19.100;2023-02-18T11:36:23;98011.34;;;6.52;100.00
33781;BME280;20097;50.832;19.100;2023-02-18T11:41:33;98022.50;;;6.11;100.00
33781;BME280;20097;50.832;19.100;2023-02-18T11:46:38;98010.06;;;5.97;100.00
33781;BME280;20097;50.832;19.100;2023-02-18T11:52:17;98010.00;;;5.89;100.00
33781;BME280;20097;50.832;19.100;2023-02-18T11:57:22;97995.75;;;5.85;100.00
33781;BME280;20097;50.832;19.100;2023-02-18T12:02:35;97995.22;;;5.82;100.00
33781;BME280;20097;50.832;19.100;2023-02-18T12:07:46;97964.88;;;5.92;100.00
33781;BME280;20097;50.832;19.100;2023-02-18T12:12:57;97963.69;;;5.86;100.00
33781;BME280;20097;50.832;19.100;2023-02-18T12:24:11;97942.84;;;5.70;100.00
33781;BME280;20097;50.832;19.100;2023-02-18T12:29:56;97934.13;;;5.89;100.00
33781;BME280;20097;50.832;19.100;2023-02-18T12:35:39;97932.09;;;6.08;100.00
33781;BME280;20097;50.832;19.100;2023-02-18T12:41:07;97916.50;;;6.00;100.00
33781;BME280;20097;50.832;19.100;2023-02-18T12:46:26;97908.84;;;5.91;100.00
33781;BME280;20097;50.832;19.100;2023-02-18T12:51:45;97914.50;;;5.86;100.00
33781;BME280;20097;50.832;19.100;2023-02-18T12:57:09;97886.75;;;5.79;100.00
33781;BME280;20097;50.832;19.100;2023-02-18T13:02:43;97878.00;;;5.80;100.00
33781;BME280;20097;50.832;19.100;2023-02-18T13:08:14;97866.16;;;5.69;100.00
33781;BME280;20097;50.832;19.100;2023-02-18T13:13:25;97855.84;;;5.77;100.00
33781;BME280;20097;50.832;19.100;2023-02-18T13:18:33;97837.97;;;5.66;100.00
33781;BME280;20097;50.832;19.100;2023-02-18T13:23:44;97839.94;;;5.72;100.00
33781;BME280;20097;50.832;19.100;2023-02-18T13:29:13;97824.06;;;5.67;100.00
33781;BME280;20097;50.832;19.100;2023-02-18T13:34:29;97797.50;;;5.65;100.00
33781;BME280;20097;50.832;19.100;2023-02-18T13:39:35;97795.41;;;5.60;100.00
33781;BME280;20097;50.832;19.100;2023-02-18T13:45:31;97765.03;;;5.71;100.00
33781;BME280;20097;50.832;19.100;2023-02-18T13:50:41;97747.38;;;5.74;100.00
33781;BME280;20097;50.832;19.100;2023-02-18T13:55:53;97722.81;;;5.78;100.00
33781;BME280;20097;50.832;19.100;2023-02-18T14:01:04;97715.03;;;5.78;100.00
33781;BME280;20097;50.832;19.100;2023-02-18T14:06:16;97703.06;;;5.77;100.00
33781;BME280;20097;50.832;19.100;2023-02-18T14:11:41;97685.91;;;5.76;100.00
33781;BME280;20097;50.832;19.100;2023-02-18T14:22:45;97647.69;;;5.70;100.00
33781;BME280;20097;50.832;19.100;2023-02-18T14:27:50;97647.06;;;5.76;100.00
33781;BME280;20097;50.832;19.100;2023-02-18T14:32:59;97620.03;;;5.71;100.00
33781;BME280;20097;50.832;19.100;2023-02-18T14:43:52;97601.09;;;5.62;100.00
33781;BME280;20097;50.832;19.100;2023-02-18T14:49:40;97560.78;;;5.51;100.00
33781;BME280;20097;50.832;19.100;2023-02-18T14:54:46;97549.63;;;5.51;100.00
33781;BME280;20097;50.832;19.100;2023-02-18T14:59:57;97537.31;;;5.53;100.00
33781;BME280;20097;50.832;19.100;2023-02-18T15:05:14;97522.78;;;5.52;100.00
33781;BME280;20097;50.832;19.100;2023-02-18T15:10:19;97495.75;;;5.46;100.00
33781;BME280;20097;50.832;19.100;2023-02-18T15:15:24;97498.03;;;5.49;100.00
33781;BME280;20097;50.832;19.100;2023-02-18T15:20:33;97499.16;;;5.47;100.00
33781;BME280;20097;50.832;19.100;2023-02-18T15:25:38;97467.28;;;5.46;100.00
33781;BME280;20097;50.832;19.100;2023-02-18T15:30:44;97478.13;;;5.42;100.00
33781;BME280;20097;50.832;19.100;2023-02-18T15:35:50;97444.50;;;5.42;100.00
33781;BME280;20097;50.832;19.100;2023-02-18T15:40:55;97448.06;;;5.41;100.00
33781;BME280;20097;50.832;19.100;2023-02-18T15:46:00;97436.88;;;5.48;100.00
33781;BME280;20097;50.832;19.100;2023-02-18T15:51:12;97440.44;;;5.55;100.00
33781;BME280;20097;50.832;19.100;2023-02-18T15:56:28;97435.91;;;5.66;100.00
33781;BME280;20097;50.832;19.100;2023-02-18T16:01:33;97429.72;;;5.91;100.00
33781;BME280;20097;50.832;19.100;2023-02-18T16:06:44;97432.50;;;5.89;100.00
33781;BME280;20097;50.832;19.100;2023-02-18T16:11:50;97435.06;;;5.97;100.00
33781;BME280;20097;50.832;19.100;2023-02-18T16:17:11;97439.72;;;6.18;100.00
33781;BME280;20097;50.832;19.100;2023-02-18T16:22:33;97424.63;;;6.29;100.00
33781;BME280;20097;50.832;19.100;2023-02-18T16:27:48;97427.50;;;6.34;100.00
33781;BME280;20097;50.832;19.100;2023-02-18T16:32:54;97442.88;;;6.44;100.00
33781;BME280;20097;50.832;19.100;2023-02-18T16:38:01;97449.91;;;6.58;100.00
33781;BME280;20097;50.832;19.100;2023-02-18T16:43:11;97444.66;;;6.74;100.00
33781;BME280;20097;50.832;19.100;2023-02-18T16:48:22;97438.13;;;6.86;100.00
33781;BME280;20097;50.832;19.100;2023-02-18T16:53:31;97418.22;;;7.01;100.00
33781;BME280;20097;50.832;19.100;2023-02-18T16:58:35;97414.72;;;7.17;100.00
33781;BME280;20097;50.832;19.100;2023-02-18T17:03:40;97422.91;;;7.28;100.00
33781;BME280;20097;50.832;19.100;2023-02-18T17:08:47;97411.00;;;7.34;100.00
33781;BME280;20097;50.832;19.100;2023-02-18T17:13:53;97415.78;;;7.45;100.00
33781;BME280;20097;50.832;19.100;2023-02-18T17:19:00;97411.22;;;7.47;100.00
33781;BME280;20097;50.832;19.100;2023-02-18T17:24:08;97398.16;;;7.55;100.00
33781;BME280;20097;50.832;19.100;2023-02-18T17:29:14;97407.16;;;7.67;100.00
33781;BME280;20097;50.832;19.100;2023-02-18T17:34:24;97393.09;;;7.76;100.00
33781;BME280;20097;50.832;19.100;2023-02-18T17:39:31;97402.69;;;7.90;100.00
33781;BME280;20097;50.832;19.100;2023-02-18T17:44:36;97394.19;;;7.96;100.00
33781;BME280;20097;50.832;19.100;2023-02-18T17:49:41;97406.25;;;8.03;100.00
33781;BME280;20097;50.832;19.100;2023-02-18T17:54:46;97415.97;;;8.09;100.00
33781;BME280;20097;50.832;19.100;2023-02-18T17:59:51;97413.81;;;8.13;100.00
33781;BME280;20097;50.832;19.100;2023-02-18T18:04:59;97413.81;;;8.13;100.00
33781;BME280;20097;50.832;19.100;2023-02-18T18:10:05;97403.44;;;8.13;100.00
33781;BME280;20097;50.832;19.100;2023-02-18T18:15:22;97420.63;;;8.14;100.00
33781;BME280;20097;50.832;19.100;2023-02-18T18:20:29;97440.78;;;8.12;100.00
33781;BME280;20097;50.832;19.100;2023-02-18T18:25:38;97449.66;;;8.17;100.00
33781;BME280;20097;50.832;19.100;2023-02-18T18:30:45;97429.22;;;8.14;100.00
33781;BME280;20097;50.832;19.100;2023-02-18T18:35:52;97437.75;;;8.23;100.00
33781;BME280;20097;50.832;19.100;2023-02-18T18:40:59;97435.84;;;8.17;100.00
33781;BME280;20097;50.832;19.100;2023-02-18T18:46:03;97478.72;;;8.21;100.00
33781;BME280;20097;50.832;19.100;2023-02-18T18:51:08;97511.03;;;8.18;100.00
33781;BME280;20097;50.832;19.100;2023-02-18T18:56:19;97518.09;;;8.10;100.00
33781;BME280;20097;50.832;19.100;2023-02-18T19:01:24;97524.31;;;8.09;100.00
33781;BME280;20097;50.832;19.100;2023-02-18T19:06:29;97531.81;;;8.04;100.00
33781;BME280;20097;50.832;19.100;2023-02-18T19:11:35;97551.00;;;8.03;100.00
33781;BME280;20097;50.832;19.100;2023-02-18T19:16:41;97566.44;;;7.59;100.00
33781;BME280;20097;50.832;19.100;2023-02-18T19:21:46;97562.56;;;7.55;100.00
33781;BME280;20097;50.832;19.100;2023-02-18T19:26:52;97557.53;;;7.54;100.00
33781;BME280;20097;50.832;19.100;2023-02-18T19:31:56;97569.75;;;7.45;100.00
33781;BME280;20097;50.832;19.100;2023-02-18T19:37:00;97559.50;;;7.52;100.00
33781;BME280;20097;50.832;19.100;2023-02-18T19:42:06;97568.75;;;7.54;100.00
33781;BME280;20097;50.832;19.100;2023-02-18T19:47:11;97581.72;;;7.54;100.00
33781;BME280;20097;50.832;19.100;2023-02-18T19:52:15;97590.59;;;7.60;100.00
33781;BME280;20097;50.832;19.100;2023-02-18T19:57:22;97589.63;;;7.61;100.00
33781;BME280;20097;50.832;19.100;2023-02-18T20:02:26;97597.38;;;7.69;100.00
33781;BME280;20097;50.832;19.100;2023-02-18T20:07:33;97624.00;;;7.63;100.00
33781;BME280;20097;50.832;19.100;2023-02-18T20:12:40;97641.22;;;7.64;100.00
33781;BME280;20097;50.832;19.100;2023-02-18T20:17:44;97647.13;;;7.50;100.00
33781;BME280;20097;50.832;19.100;2023-02-18T20:22:48;97675.59;;;7.35;100.00
33781;BME280;20097;50.832;19.100;2023-02-18T20:27:54;97675.28;;;7.30;100.00
33781;BME280;20097;50.832;19.100;2023-02-18T20:33:03;97664.50;;;7.11;100.00
33781;BME280;20097;50.832;19.100;2023-02-18T20:38:08;97675.72;;;6.95;100.00
33781;BME280;20097;50.832;19.100;2023-02-18T20:43:14;97696.66;;;6.85;100.00
33781;BME280;20097;50.832;19.100;2023-02-18T20:48:19;97697.00;;;6.74;100.00
33781;BME280;20097;50.832;19.100;2023-02-18T20:53:23;97704.47;;;6.61;100.00
33781;BME280;20097;50.832;19.100;2023-02-18T20:58:29;97675.97;;;6.45;100.00
33781;BME280;20097;50.832;19.100;2023-02-18T21:03:35;97693.97;;;6.31;100.00
33781;BME280;20097;50.832;19.100;2023-02-18T21:08:40;97700.25;;;6.20;100.00
33781;BME280;20097;50.832;19.100;2023-02-18T21:13:47;97715.63;;;6.22;100.00
33781;BME280;20097;50.832;19.100;2023-02-18T21:18:52;97724.56;;;6.19;100.00
33781;BME280;20097;50.832;19.100;2023-02-18T21:23:56;97746.69;;;6.06;100.00
33781;BME280;20097;50.832;19.100;2023-02-18T21:29:06;97764.91;;;5.80;100.00
33781;BME280;20097;50.832;19.100;2023-02-18T21:34:12;97781.53;;;5.78;100.00
33781;BME280;20097;50.832;19.100;2023-02-18T21:39:17;97789.47;;;5.76;100.00
33781;BME280;20097;50.832;19.100;2023-02-18T21:44:23;97787.00;;;5.67;100.00
33781;BME280;20097;50.832;19.100;2023-02-18T21:49:43;97786.00;;;5.59;100.00
33781;BME280;20097;50.832;19.100;2023-02-18T21:54:51;97790.94;;;5.45;100.00
33781;BME280;20097;50.832;19.100;2023-02-18T21:59:57;97804.59;;;5.29;100.00
33781;BME280;20097;50.832;19.100;2023-02-18T22:05:14;97822.00;;;5.19;100.00
33781;BME280;20097;50.832;19.100;2023-02-18T22:10:18;97829.44;;;5.22;100.00
33781;BME280;20097;50.832;19.100;2023-02-18T22:15:24;97837.66;;;5.18;100.00
33781;BME280;20097;50.832;19.100;2023-02-18T22:20:29;97853.84;;;5.20;100.00
33781;BME280;20097;50.832;19.100;2023-02-18T22:25:34;97853.25;;;5.26;100.00
33781;BME280;20097;50.832;19.100;2023-02-18T22:30:40;97861.84;;;5.26;100.00
33781;BME280;20097;50.832;19.100;2023-02-18T22:35:45;97857.13;;;5.22;100.00
33781;BME280;20097;50.832;19.100;2023-02-18T22:40:49;97889.56;;;5.16;100.00
33781;BME280;20097;50.832;19.100;2023-02-18T22:45:56;97894.56;;;5.18;100.00
33781;BME280;20097;50.832;19.100;2023-02-18T22:51:06;97907.50;;;5.18;100.00
33781;BME280;20097;50.832;19.100;2023-02-18T22:56:13;97902.94;;;5.12;100.00
33781;BME280;20097;50.832;19.100;2023-02-18T23:01:22;97921.19;;;5.10;100.00
33781;BME280;20097;50.832;19.100;2023-02-18T23:06:27;97924.88;;;5.08;100.00
33781;BME280;20097;50.832;19.100;2023-02-18T23:11:31;97935.31;;;4.98;100.00
33781;BME280;20097;50.832;19.100;2023-02-18T23:16:37;97925.25;;;4.95;100.00
33781;BME280;20097;50.832;19.100;2023-02-18T23:21:55;97940.03;;;5.03;100.00
33781;BME280;20097;50.832;19.100;2023-02-18T23:26:59;97949.44;;;5.04;100.00
33781;BME280;20097;50.832;19.100;2023-02-18T23:32:06;97929.03;;;5.01;100.00
33781;BME280;20097;50.832;19.100;2023-02-18T23:37:10;97924.22;;;5.06;100.00
33781;BME280;20097;50.832;19.100;2023-02-18T23:42:15;97925.63;;;5.00;100.00
33781;BME280;20097;50.832;19.100;2023-02-18T23:47:21;97929.91;;;4.92;100.00
33781;BME280;20097;50.832;19.100;2023-02-18T23:52:26;97943.44;;;4.86;100.00
33781;BME280;20097;50.832;19.100;2023-02-18T23:57:31;97927.53;;;4.81;100.00
